Hlavní strana
METAR-TAF:

METAR-TAF

Letiště :

Mount Airy/Surry County Airport

Mount Airy, Severní Karolína, Spojené státy americké

zeměpisná šířka: 36-27-35N, zeměpisná délka: 080-33-11W, výška: 380 m

Aktuální stav počasí

Zpráva byla vytvořena před 18 minutami, v 22:55 UTC
Severozápadní vítr 5 kt s nárazy do 14 kt
Teplota 7°C
Vlhkost vzduchu 66%
Tlak 1004 hPa
Viditelnost: 16.1 km
Zataženo ve výšce 7000 ft

METAR: KMWK 302255Z AUTO 31005G14KT 10SM OVC070 07/01 A2964 RMK AO2 T00710008

Čas: 18:13 (23:13 UTC)


TAF: chybějící

Stav a předpovědi počasí z více než 4 000 letišť (zprávy METAR a TAF).

Červené a žluté tečky na mapě představují dostupné meteorologické stanice.

Když kurzor umístíte na tečku, zobrazí se název stanice.

Pak kliknutím zobrazíte stav a předpověď počasí.

Chcete-li změnit mapu, kliknutím na zelené tlačítko se znaménkem +mapu přiblížíte, kliknutím na zelené tlačítko se znaménkem – mapu oddálíte a kliknutím na zelené šipky přejdete na sousední mapy.


METAR-TAF: